KPVD

Theodore Francis Green State Airport

Providence, Rhode Island, USA
METAR KPVD 201251Z 23013KT 10SM SCT150 BKN250 03/M04 A2976 RMK AO2 SLP076 T00331044
Observed Flight Rules
Jan-20 @ 12:51 UTC (23 minutes ago) Visual Flight Rules
Wind Visibility Clouds
230° at 13 knots 10 miles
  • Scattered at 15,000' AGL
  • Broken at 25,000' AGL
Temperatures Readings
Current 3°C / 37°F
Dewpoint -4°C / 25°F
Humidity 60%
Altimeter 29.76" Hg
Pressure 1007.6 hPa
Elevation 16
METAR KPVD 201251Z 23013KT 10SM SCT150 BKN250 03/M04 A2976 RMK AO2 SLP076 T00331044
Observed Flight Rules
Jan-20 @ 12:51 UTC
(23 minutes ago)
VFR
Wind Visibility
230° at 13 knots 10 miles
Clouds
  • Scattered at 15,000' AGL
  • Broken at 25,000' AGL
Temperature Dewpoint
3°C / 37°F -4°C / 25°F
Humidity Altimeter Pressure
60% 29.76" Hg 1007.6 hPa